createdAt,value
2018-04-01T02:22:03.192Z,0.00
2018-04-01T02:22:36.677Z,0.00
2018-04-01T02:23:36.639Z,0.00
2018-04-01T02:24:36.639Z,0.00
2018-04-01T02:25:36.641Z,0.00
2018-04-01T02:26:36.654Z,0.00
2018-04-01T02:27:36.679Z,0.00
2018-04-01T02:28:36.721Z,0.00
2018-04-01T02:29:36.710Z,0.00
2018-04-01T02:30:36.721Z,0.00
2018-04-01T02:31:36.757Z,0.00
2018-04-01T02:32:36.756Z,0.00
2018-04-01T02:33:36.762Z,0.00
2018-04-01T02:34:36.771Z,0.00
2018-04-01T02:35:36.809Z,0.00
2018-04-01T02:36:36.815Z,0.00
2018-04-01T02:37:36.801Z,0.00
2018-04-01T02:38:36.829Z,0.00
2018-04-01T02:39:36.858Z,0.00
2018-04-01T02:40:36.874Z,0.00
2018-04-01T02:41:36.871Z,0.00
2018-04-01T02:42:36.878Z,0.00
2018-04-01T02:43:36.895Z,0.00
2018-04-01T02:44:36.878Z,0.00
2018-04-01T02:45:37.501Z,0.00
2018-04-01T02:46:36.900Z,0.00
2018-04-01T02:47:36.911Z,0.00
2018-04-01T02:48:36.955Z,0.00
2018-04-01T02:49:36.939Z,0.00
2018-04-01T02:50:36.960Z,0.00
2018-04-01T02:51:36.965Z,0.00
2018-04-01T02:52:36.968Z,0.00
2018-04-01T02:53:36.983Z,0.00
2018-04-01T02:54:37.038Z,0.00
2018-04-01T02:55:37.008Z,0.00
2018-04-01T02:56:37.018Z,0.00
2018-04-01T02:57:37.042Z,0.00
2018-04-01T02:58:37.036Z,0.00
2018-04-01T02:59:37.079Z,0.00
2018-04-01T03:00:37.054Z,0.00
2018-04-01T03:01:37.073Z,0.00
2018-04-01T03:02:37.094Z,0.00
2018-04-01T03:03:37.153Z,0.00
2018-04-01T03:04:37.137Z,0.00
2018-04-01T03:05:37.143Z,0.00
2018-04-01T03:06:37.127Z,0.00
2018-04-01T03:07:37.155Z,0.00
2018-04-01T03:08:37.199Z,0.00
2018-04-01T03:09:37.184Z,0.00
2018-04-01T03:10:37.189Z,0.00
2018-04-01T03:11:37.188Z,0.00
2018-04-01T03:12:37.211Z,0.00
2018-04-01T03:13:37.232Z,0.00
2018-04-01T03:14:37.268Z,0.00
2018-04-01T03:15:37.240Z,0.00
2018-04-01T03:16:37.250Z,0.00
2018-04-01T03:17:37.266Z,0.00
2018-04-01T03:18:37.272Z,0.00
2018-04-01T03:19:37.299Z,0.00
2018-04-01T03:20:37.338Z,0.00
2018-04-01T03:21:37.304Z,0.00
2018-04-01T03:22:37.326Z,0.00
2018-04-01T03:23:37.333Z,0.00
2018-04-01T03:24:37.341Z,0.00
2018-04-01T03:25:37.389Z,0.00
2018-04-01T03:26:37.365Z,0.00
2018-04-01T03:27:37.382Z,0.00
2018-04-01T03:28:37.406Z,0.00
2018-04-01T03:29:37.399Z,0.00
2018-04-01T03:30:37.432Z,0.00
2018-04-01T03:31:37.422Z,0.00
2018-04-01T03:32:37.441Z,0.00
2018-04-01T03:33:37.452Z,0.00
2018-04-01T03:34:37.468Z,0.00
2018-04-01T03:35:37.502Z,0.00
2018-04-01T03:36:37.489Z,0.00
2018-04-01T03:37:37.490Z,0.00
2018-04-01T03:38:37.507Z,0.00
2018-04-01T03:39:37.518Z,0.00
2018-04-01T03:40:37.557Z,0.00
2018-04-01T03:41:37.557Z,0.00
2018-04-01T03:42:37.561Z,0.00
2018-04-01T03:43:37.575Z,0.00
2018-04-01T03:44:37.581Z,0.00
2018-04-01T03:45:37.612Z,0.00
2018-04-01T03:46:37.601Z,0.00
2018-04-01T03:47:37.620Z,0.00
2018-04-01T03:48:37.642Z,0.00
2018-04-01T03:49:37.649Z,0.00
2018-04-01T03:50:37.659Z,0.00
2018-04-01T03:51:37.663Z,0.00
2018-04-01T03:52:37.671Z,0.00
2018-04-01T03:53:37.699Z,0.00
2018-04-01T03:54:37.695Z,0.00
2018-04-01T03:55:37.720Z,0.00
2018-04-01T03:56:37.721Z,0.00
2018-04-01T03:57:37.742Z,0.00
2018-04-01T03:58:37.747Z,0.00
2018-04-01T03:59:37.764Z,0.00
2018-04-01T04:00:37.778Z,0.00
2018-04-01T04:01:37.777Z,0.00
2018-04-01T04:02:37.802Z,0.00
2018-04-01T04:03:37.834Z,0.00
2018-04-01T04:04:37.817Z,0.00
2018-04-01T04:05:37.833Z,0.00
2018-04-01T04:06:37.838Z,0.00
2018-04-01T04:07:37.863Z,0.00
2018-04-01T04:08:37.879Z,0.00
2018-04-01T04:09:37.923Z,0.00
2018-04-01T04:10:37.884Z,0.00
2018-04-01T04:11:37.909Z,0.00
2018-04-01T04:12:37.923Z,0.00
2018-04-01T04:13:37.946Z,0.00
2018-04-01T04:14:37.957Z,0.00
2018-04-01T04:15:37.975Z,0.00
2018-04-01T04:16:37.963Z,0.00
2018-04-01T04:17:37.990Z,0.00
2018-04-01T04:18:38.028Z,0.00
2018-04-01T04:19:37.992Z,0.00
2018-04-01T04:20:38.007Z,0.00
2018-04-01T04:21:38.014Z,0.00
2018-04-01T04:22:38.021Z,0.00
2018-04-01T04:23:38.059Z,0.00
2018-04-01T04:24:38.089Z,0.00
2018-04-01T04:25:38.078Z,0.00
2018-04-01T04:26:38.080Z,0.00
2018-04-01T04:27:38.096Z,0.00
2018-04-01T04:28:38.110Z,0.00
2018-04-01T04:29:38.118Z,0.00
2018-04-01T04:30:38.155Z,0.00
2018-04-01T04:31:38.140Z,0.00
2018-04-01T04:32:38.147Z,0.00
2018-04-01T04:33:38.183Z,0.00
2018-04-01T04:34:38.189Z,0.00
2018-04-01T04:35:38.185Z,0.00
2018-04-01T04:36:38.247Z,0.00
2018-04-01T04:37:38.258Z,0.00
2018-04-01T04:38:38.230Z,0.00
2018-04-01T04:39:38.229Z,0.00
2018-04-01T04:40:38.236Z,0.00
2018-04-01T04:41:38.254Z,0.00
2018-04-01T04:42:38.305Z,0.00
2018-04-01T04:43:38.274Z,0.00
2018-04-01T04:44:38.299Z,0.00
2018-04-01T04:45:38.305Z,0.00
2018-04-01T04:46:38.318Z,0.00
2018-04-01T04:47:38.336Z,0.00
2018-04-01T04:48:38.346Z,0.00
2018-04-01T04:49:38.348Z,0.00
2018-04-01T04:50:38.363Z,0.00
2018-04-01T04:51:38.376Z,0.00
2018-04-01T04:52:38.422Z,0.00
2018-04-01T04:53:38.403Z,0.00
2018-04-01T04:54:38.405Z,0.00
2018-04-01T04:55:38.418Z,0.00
2018-04-01T04:56:38.430Z,0.00
2018-04-01T04:57:38.444Z,0.00
2018-04-01T04:58:38.475Z,4.00
2018-04-01T04:59:38.471Z,4.00
2018-04-01T05:00:38.474Z,0.00
2018-04-01T05:01:38.494Z,0.00
2018-04-01T05:02:38.517Z,0.00
2018-04-01T05:03:38.531Z,4.00
2018-04-01T05:04:38.561Z,0.00
2018-04-01T05:05:38.532Z,4.00
2018-04-01T05:06:38.555Z,0.00
2018-04-01T05:07:38.559Z,4.00
2018-04-01T05:08:38.574Z,4.00
2018-04-01T05:09:38.615Z,4.00
2018-04-01T05:10:38.601Z,4.00
2018-04-01T05:11:38.604Z,4.00
2018-04-01T05:12:38.632Z,4.00
2018-04-01T05:13:38.649Z,4.00
2018-04-01T05:14:38.647Z,4.00
2018-04-01T05:15:38.649Z,8.00
2018-04-01T05:16:38.666Z,8.00
2018-04-01T05:17:38.680Z,8.00
2018-04-01T05:18:38.733Z,4.00
2018-04-01T05:19:38.739Z,8.00
2018-04-01T05:20:38.712Z,12.00
2018-04-01T05:21:38.733Z,8.00
2018-04-01T05:22:38.737Z,8.00
2018-04-01T05:23:38.765Z,8.00
2018-04-01T05:24:38.781Z,8.00
2018-04-01T05:25:38.771Z,12.00
2018-04-01T05:26:38.819Z,8.00
2018-04-01T05:27:38.810Z,8.00
2018-04-01T05:28:38.816Z,8.00
2018-04-01T05:29:38.829Z,8.00
2018-04-01T05:30:38.840Z,4.00
2018-04-01T05:31:38.872Z,4.00
2018-04-01T05:32:38.856Z,0.00
2018-04-01T05:33:38.868Z,4.00
2018-04-01T05:34:38.890Z,4.00
2018-04-01T05:35:38.896Z,4.00
2018-04-01T05:36:38.924Z,4.00
2018-04-01T05:37:38.921Z,4.00
2018-04-01T05:38:38.924Z,4.00
2018-04-01T05:39:38.937Z,4.00
2018-04-01T05:40:38.966Z,8.00
2018-04-01T05:41:38.958Z,4.00
2018-04-01T05:42:38.970Z,8.00
2018-04-01T05:43:38.994Z,4.00
2018-04-01T05:44:38.996Z,8.00
2018-04-01T05:45:39.032Z,8.00
2018-04-01T05:46:39.036Z,8.00
2018-04-01T05:47:39.029Z,8.00
2018-04-01T05:48:39.040Z,8.00
2018-04-01T05:49:39.054Z,8.00
2018-04-01T05:50:39.097Z,8.00
2018-04-01T05:51:39.083Z,8.00
2018-04-01T05:52:39.091Z,12.00
2018-04-01T05:53:39.099Z,12.00
2018-04-01T05:54:39.119Z,16.00
2018-04-01T05:55:39.146Z,12.00
2018-04-01T05:56:39.144Z,16.00
2018-04-01T05:57:39.160Z,12.00
2018-04-01T05:58:39.166Z,12.00
2018-04-01T05:59:39.180Z,16.00
2018-04-01T06:00:39.218Z,16.00
2018-04-01T06:01:39.220Z,20.00
2018-04-01T06:02:39.253Z,20.00
2018-04-01T06:03:39.236Z,20.00
2018-04-01T06:04:39.245Z,20.00
2018-04-01T06:05:39.296Z,20.00
2018-04-01T06:06:39.308Z,24.00
2018-04-01T06:07:39.311Z,24.00
2018-04-01T06:08:39.305Z,20.00
2018-04-01T06:09:39.339Z,24.00
2018-04-01T06:10:39.336Z,24.00
2018-04-01T06:11:39.354Z,28.00
2018-04-01T06:12:39.351Z,28.00
2018-04-01T06:13:39.367Z,32.00
2018-04-01T06:14:39.361Z,32.00
2018-04-01T06:15:39.402Z,36.00
2018-04-01T06:16:39.387Z,36.00
2018-04-01T06:17:39.394Z,40.00
2018-04-01T06:18:39.406Z,44.00
2018-04-01T06:19:39.419Z,48.00
2018-04-01T06:20:39.436Z,52.00
2018-04-01T06:21:39.482Z,48.00
2018-04-01T06:22:39.452Z,48.00
2018-04-01T06:23:39.478Z,48.00
2018-04-01T06:24:39.483Z,56.00
2018-04-01T06:25:39.491Z,56.00
2018-04-01T06:26:39.512Z,52.00
2018-04-01T06:27:39.537Z,52.00
2018-04-01T06:28:39.530Z,52.00
2018-04-01T06:29:39.549Z,56.00
2018-04-01T06:30:39.558Z,64.00
2018-04-01T06:31:39.565Z,64.00
2018-04-01T06:32:39.604Z,60.00
2018-04-01T06:33:39.588Z,64.00
2018-04-01T06:34:39.604Z,68.00
2018-04-01T06:35:39.612Z,68.00
2018-04-01T06:36:39.623Z,68.00
2018-04-01T06:37:39.653Z,72.00
2018-04-01T06:38:39.651Z,76.00
2018-04-01T06:39:39.659Z,84.00
2018-04-01T06:40:39.674Z,84.00
2018-04-01T06:41:39.698Z,80.00
2018-04-01T06:42:39.726Z,76.00
2018-04-01T06:43:39.718Z,68.00
2018-04-01T06:44:39.719Z,60.00
2018-04-01T06:45:39.742Z,60.00
2018-04-01T06:46:39.749Z,56.00
2018-04-01T06:47:39.765Z,52.00
2018-04-01T06:57:51.321Z,28.00
2018-04-01T06:58:50.524Z,32.00
2018-04-01T06:59:50.525Z,28.00
2018-04-01T07:02:44.558Z,32.00
2018-04-01T07:03:44.159Z,36.00
2018-04-01T07:04:44.112Z,36.00
2018-04-01T07:05:44.100Z,36.00
2018-04-01T07:06:44.117Z,36.00
2018-04-01T07:07:44.136Z,40.00
2018-04-01T07:11:19.405Z,44.00
2018-04-01T07:11:46.346Z,48.00
2018-04-01T07:12:44.126Z,52.00
2018-04-01T07:13:44.124Z,52.00
2018-04-01T07:17:12.299Z,44.00
2018-04-01T07:18:12.240Z,44.00
2018-04-01T07:19:12.234Z,44.00
2018-04-01T07:20:12.243Z,48.00
2018-04-01T07:21:12.271Z,52.00
2018-04-01T07:22:12.269Z,56.00
2018-04-01T07:23:12.313Z,64.00
2018-04-01T07:24:12.295Z,72.00
2018-04-01T07:25:12.316Z,84.00
2018-04-01T07:26:12.323Z,80.00
2018-04-01T07:27:12.333Z,80.00
2018-04-01T07:28:12.347Z,76.00
2018-04-01T07:29:12.383Z,80.00
2018-04-01T07:30:12.371Z,92.00
2018-04-01T07:31:12.378Z,104.00
2018-04-01T07:32:12.388Z,116.00
2018-04-01T07:33:12.488Z,132.00
2018-04-01T07:34:12.991Z,136.00
2018-04-01T07:35:12.427Z,128.00
2018-04-01T07:36:12.484Z,112.00
2018-04-01T07:37:31.890Z,100.00
2018-04-01T07:38:12.484Z,96.00
2018-04-01T07:39:12.480Z,88.00
2018-04-01T07:40:12.495Z,84.00
2018-04-01T07:41:12.545Z,68.00
2018-04-01T07:42:12.518Z,56.00
2018-04-01T07:43:12.531Z,48.00
2018-04-01T07:44:12.591Z,48.00
2018-04-01T07:45:12.577Z,44.00
2018-04-01T07:46:12.598Z,44.00
2018-04-01T07:47:12.591Z,48.00
2018-04-01T07:48:12.595Z,48.00
2018-04-01T07:49:12.642Z,48.00
2018-04-01T07:50:12.620Z,44.00
2018-04-01T07:51:12.632Z,40.00
2018-04-01T07:52:12.644Z,48.00
2018-04-01T07:53:12.658Z,48.00
2018-04-01T07:54:12.698Z,52.00
2018-04-01T07:55:12.689Z,52.00
2018-04-01T07:56:12.696Z,52.00
2018-04-01T07:57:12.710Z,52.00
2018-04-01T07:58:12.725Z,56.00
2018-04-01T07:59:12.803Z,56.00
2018-04-01T08:00:12.780Z,68.00
2018-04-01T08:01:12.760Z,76.00
2018-04-01T08:02:12.780Z,76.00
2018-04-01T08:03:12.783Z,80.00
2018-04-01T08:04:12.797Z,88.00
2018-04-01T08:05:12.843Z,92.00
2018-04-01T08:06:12.824Z,88.00
2018-04-01T08:07:12.836Z,80.00
2018-04-01T08:08:12.846Z,72.00
2018-04-01T08:09:12.861Z,68.00
2018-04-01T08:10:12.893Z,72.00
2018-04-01T08:11:12.891Z,76.00
2018-04-01T08:12:12.898Z,72.00
2018-04-01T08:13:12.914Z,60.00
2018-04-01T08:14:12.925Z,52.00
2018-04-01T08:15:12.942Z,60.00
2018-04-01T08:16:12.978Z,68.00
2018-04-01T08:17:12.964Z,80.00
2018-04-01T08:18:12.977Z,88.00
2018-04-01T08:19:12.993Z,84.00
2018-04-01T08:20:13.002Z,88.00
2018-04-01T08:21:13.043Z,96.00
2018-04-01T08:22:13.029Z,100.00
2018-04-01T08:23:13.041Z,112.00
2018-04-01T08:24:13.057Z,100.00
2018-04-01T08:25:13.072Z,100.00
2018-04-01T08:26:13.112Z,96.00
2018-04-01T08:27:13.094Z,100.00
2018-04-01T08:28:13.107Z,100.00
2018-04-01T08:29:13.118Z,108.00
2018-04-01T08:30:13.136Z,112.00
2018-04-01T08:31:13.147Z,116.00
2018-04-01T08:32:13.186Z,100.00
2018-04-01T08:33:13.180Z,80.00
2018-04-01T08:34:13.227Z,72.00
2018-04-01T08:35:13.199Z,76.00
2018-04-01T08:36:13.214Z,68.00
2018-04-01T08:37:13.230Z,68.00
2018-04-01T08:38:13.260Z,64.00
2018-04-01T08:39:13.252Z,60.00
2018-04-01T08:40:13.308Z,56.00
2018-04-01T08:41:13.280Z,60.00
2018-04-01T08:42:13.296Z,72.00
2018-04-01T08:43:13.303Z,80.00
2018-04-01T08:44:13.314Z,88.00
2018-04-01T08:45:13.360Z,84.00
2018-04-01T08:46:13.344Z,80.00
2018-04-01T08:47:13.354Z,76.00
2018-04-01T08:48:13.376Z,72.00
2018-04-01T08:49:13.382Z,72.00
2018-04-01T08:50:13.414Z,76.00
2018-04-01T08:51:13.425Z,76.00
2018-04-01T08:52:13.424Z,76.00
2018-04-01T08:53:13.477Z,68.00
2018-04-01T08:54:13.448Z,60.00
2018-04-01T08:55:13.502Z,56.00
2018-04-01T08:56:13.477Z,48.00
2018-04-01T08:57:13.487Z,44.00
2018-04-01T08:58:13.508Z,48.00
2018-04-01T08:59:13.513Z,68.00
2018-04-01T09:00:13.561Z,80.00
2018-04-01T09:01:13.541Z,80.00
2018-04-01T09:02:13.561Z,76.00
2018-04-01T09:03:13.568Z,68.00
2018-04-01T09:04:13.586Z,68.00
2018-04-01T09:05:13.689Z,68.00
2018-04-01T09:06:13.614Z,72.00
2018-04-01T09:07:13.622Z,72.00
2018-04-01T09:08:13.633Z,80.00
2018-04-01T09:09:13.654Z,92.00
2018-04-01T09:10:13.663Z,100.00
2018-04-01T09:11:13.689Z,96.00
2018-04-01T09:12:13.685Z,100.00
2018-04-01T09:13:13.696Z,100.00
2018-04-01T09:14:13.717Z,112.00
2018-04-01T09:15:13.723Z,128.00
2018-04-01T09:16:13.756Z,144.00
2018-04-01T09:17:13.752Z,164.00
2018-04-01T09:18:13.763Z,196.00
2018-04-01T09:19:13.776Z,212.00
2018-04-01T09:20:13.787Z,204.00
2018-04-01T09:21:13.818Z,188.00
2018-04-01T09:22:13.847Z,188.00
2018-04-01T09:23:13.874Z,204.00
2018-04-01T09:24:13.842Z,232.00
2018-04-01T09:25:13.850Z,256.00
2018-04-01T09:26:13.868Z,268.00
2018-04-01T09:27:13.886Z,256.00
2018-04-01T09:28:13.898Z,240.00
2018-04-01T09:29:13.945Z,224.00
2018-04-01T09:30:13.920Z,204.00
2018-04-01T09:31:13.932Z,184.00
2018-04-01T09:32:13.945Z,160.00
2018-04-01T09:33:13.962Z,136.00
2018-04-01T09:34:13.987Z,136.00
2018-04-01T09:35:13.984Z,148.00
2018-04-01T09:36:13.994Z,140.00
2018-04-01T09:37:14.011Z,128.00
2018-04-01T09:38:14.044Z,132.00
2018-04-01T09:39:14.034Z,148.00
2018-04-01T09:40:14.049Z,168.00
2018-04-01T09:41:14.068Z,176.00
2018-04-01T09:42:14.075Z,180.00
2018-04-01T09:43:14.127Z,176.00
2018-04-01T09:44:14.118Z,180.00
2018-04-01T09:45:14.129Z,192.00
2018-04-01T09:46:14.126Z,188.00
2018-04-01T09:47:14.145Z,168.00
2018-04-01T09:48:14.154Z,144.00
2018-04-01T09:49:14.182Z,124.00
2018-04-01T09:50:14.176Z,120.00
2018-04-01T09:51:14.190Z,112.00
2018-04-01T09:52:14.205Z,116.00
2018-04-01T09:53:14.233Z,120.00
2018-04-01T09:54:14.232Z,120.00
2018-04-01T09:55:14.242Z,124.00
2018-04-01T09:56:14.296Z,136.00
2018-04-01T09:57:14.272Z,152.00
2018-04-01T09:58:14.312Z,160.00
2018-04-01T09:59:14.291Z,172.00
2018-04-01T10:00:14.307Z,184.00
2018-04-01T10:01:14.321Z,224.00
2018-04-01T10:02:14.330Z,260.00
2018-04-01T10:03:14.353Z,268.00
2018-04-01T10:04:14.393Z,260.00
2018-04-01T10:05:14.371Z,256.00
2018-04-01T10:06:14.385Z,248.00
2018-04-01T10:07:14.399Z,240.00
2018-04-01T10:08:14.453Z,224.00
2018-04-01T10:09:14.425Z,192.00
2018-04-01T10:10:14.447Z,172.00
2018-04-01T10:11:14.450Z,168.00
2018-04-01T10:12:14.472Z,176.00
2018-04-01T10:13:14.496Z,180.00
2018-04-01T10:14:14.492Z,184.00
2018-04-01T10:15:14.510Z,196.00
2018-04-01T10:16:14.515Z,200.00
2018-04-01T10:17:14.536Z,176.00
2018-04-01T10:18:14.581Z,160.00
2018-04-01T10:19:14.581Z,148.00
2018-04-01T10:20:14.644Z,140.00
2018-04-01T10:21:14.586Z,128.00
2018-04-01T10:22:14.601Z,140.00
2018-04-01T10:23:14.612Z,144.00
2018-04-01T10:24:14.659Z,156.00
2018-04-01T10:25:14.688Z,172.00
2018-04-01T10:26:14.652Z,196.00
2018-04-01T10:27:14.662Z,212.00
2018-04-01T10:28:14.673Z,208.00
2018-04-01T10:29:14.718Z,196.00
2018-04-01T10:30:14.700Z,172.00
2018-04-01T10:31:14.919Z,156.00
2018-04-01T10:32:14.728Z,148.00
2018-04-01T10:33:14.755Z,156.00
2018-04-01T10:34:14.760Z,176.00
2018-04-01T10:35:14.767Z,204.00
2018-04-01T10:36:14.783Z,216.00
2018-04-01T10:37:14.847Z,208.00
2018-04-01T10:38:14.825Z,204.00
2018-04-01T10:39:14.818Z,192.00
2018-04-01T10:40:14.862Z,184.00
2018-04-01T10:41:14.844Z,164.00
2018-04-01T10:42:14.866Z,140.00
2018-04-01T10:43:14.870Z,152.00
2018-04-01T10:44:14.892Z,160.00
2018-04-01T10:45:14.932Z,180.00
2018-04-01T10:46:14.915Z,200.00
2018-04-01T10:47:14.927Z,212.00
2018-04-01T10:48:14.954Z,232.00
2018-04-01T10:49:15.009Z,220.00
2018-04-01T10:50:16.950Z,200.00
2018-04-01T10:51:14.977Z,200.00
2018-04-01T10:52:14.988Z,216.00
2018-04-01T10:53:15.009Z,212.00
2018-04-01T10:54:15.036Z,200.00
2018-04-01T10:55:15.042Z,192.00
2018-04-01T10:56:15.074Z,180.00
2018-04-01T10:57:15.058Z,160.00
2018-04-01T10:58:15.099Z,164.00
2018-04-01T10:59:15.088Z,212.00
2018-04-01T11:00:15.135Z,232.00
2018-04-01T11:01:15.109Z,228.00
2018-04-01T11:02:15.124Z,240.00
2018-04-01T11:03:15.148Z,244.00
2018-04-01T11:04:15.150Z,240.00
2018-04-01T11:05:15.236Z,228.00
2018-04-01T11:06:15.176Z,224.00
2018-04-01T11:07:15.200Z,228.00
2018-04-01T11:08:15.208Z,232.00
2018-04-01T11:09:15.273Z,240.00
2018-04-01T11:10:15.243Z,248.00
2018-04-01T11:11:15.243Z,248.00
2018-04-01T11:12:15.255Z,228.00
2018-04-01T11:13:15.345Z,200.00
2018-04-01T11:14:15.428Z,180.00
2018-04-01T11:15:15.434Z,176.00
2018-04-01T11:16:15.385Z,188.00
2018-04-01T11:17:15.360Z,196.00
2018-04-01T11:18:15.351Z,200.00
2018-04-01T11:19:15.349Z,208.00
2018-04-01T11:20:15.376Z,204.00
2018-04-01T11:21:15.435Z,184.00
2018-04-01T11:22:15.396Z,168.00
2018-04-01T11:23:15.402Z,160.00
2018-04-01T11:24:15.421Z,152.00
2018-04-01T11:25:15.460Z,160.00
2018-04-01T11:26:15.496Z,160.00
2018-04-01T11:27:15.456Z,152.00
2018-04-01T11:28:15.532Z,156.00
2018-04-01T11:29:15.489Z,160.00
2018-04-01T11:30:15.516Z,168.00
2018-04-01T11:31:17.037Z,176.00
2018-04-01T11:32:15.530Z,188.00
2018-04-01T11:33:15.539Z,192.00
2018-04-01T11:34:15.554Z,196.00
2018-04-01T11:35:15.573Z,208.00
2018-04-01T11:36:15.575Z,212.00
2018-04-01T11:37:15.590Z,224.00
2018-04-01T11:38:15.648Z,236.00
2018-04-01T11:39:15.616Z,240.00
2018-04-01T11:40:15.629Z,248.00
2018-04-01T11:41:15.641Z,264.00
2018-04-01T11:42:15.654Z,256.00
2018-04-01T11:43:15.683Z,256.00
2018-04-01T11:44:15.687Z,256.00
2018-04-01T11:45:15.698Z,276.00
2018-04-01T11:46:15.708Z,280.00
2018-04-01T11:47:15.728Z,268.00
2018-04-01T11:48:15.773Z,260.00
2018-04-01T11:49:15.751Z,256.00
2018-04-01T11:50:15.786Z,248.00
2018-04-01T11:51:15.807Z,240.00
2018-04-01T11:52:15.823Z,244.00
2018-04-01T11:53:15.827Z,276.00
2018-04-01T11:54:15.838Z,300.00
2018-04-01T11:55:16.118Z,292.00
2018-04-01T11:56:15.937Z,292.00
2018-04-01T11:57:15.854Z,288.00
2018-04-01T11:58:15.871Z,280.00
2018-04-01T11:59:15.884Z,276.00
2018-04-01T12:00:15.894Z,268.00
2018-04-01T12:01:15.954Z,268.00
2018-04-01T12:02:16.010Z,260.00
2018-04-01T12:03:15.935Z,240.00
2018-04-01T12:04:15.953Z,232.00
2018-04-01T12:05:15.963Z,240.00
2018-04-01T12:06:16.008Z,244.00
2018-04-01T12:07:15.984Z,232.00
2018-04-01T12:08:16.035Z,216.00
2018-04-01T12:09:16.052Z,224.00
2018-04-01T12:10:16.029Z,236.00
2018-04-01T12:11:16.074Z,216.00
2018-04-01T12:12:17.043Z,204.00
2018-04-01T12:13:16.068Z,224.00
2018-04-01T12:14:16.163Z,224.00
2018-04-01T12:15:16.088Z,244.00
2018-04-01T12:16:16.184Z,260.00
2018-04-01T12:17:16.118Z,264.00
2018-04-01T12:18:16.154Z,248.00
2018-04-01T12:19:16.147Z,240.00
2018-04-01T12:20:16.159Z,240.00
2018-04-01T12:21:16.182Z,224.00
2018-04-01T12:22:16.244Z,240.00
2018-04-01T12:23:16.198Z,228.00
2018-04-01T12:24:16.206Z,192.00
2018-04-01T12:25:16.245Z,168.00
2018-04-01T12:26:16.319Z,148.00
2018-04-01T12:27:16.260Z,148.00
2018-04-01T12:28:16.298Z,156.00
2018-04-01T12:29:16.279Z,152.00
2018-04-01T12:30:16.498Z,152.00
2018-04-01T12:31:16.309Z,128.00
2018-04-01T12:32:16.333Z,124.00
2018-04-01T12:33:16.395Z,120.00
2018-04-01T12:34:16.347Z,124.00
2018-04-01T12:35:16.370Z,124.00
2018-04-01T12:36:16.379Z,120.00
2018-04-01T12:37:16.392Z,128.00
2018-04-01T12:38:16.440Z,148.00
2018-04-01T12:39:16.415Z,136.00
2018-04-01T12:40:16.435Z,140.00
2018-04-01T12:41:16.453Z,148.00
2018-04-01T12:42:16.469Z,156.00
2018-04-01T12:43:16.491Z,168.00
2018-04-01T12:44:16.484Z,160.00
2018-04-01T12:45:16.498Z,168.00
2018-04-01T12:46:16.511Z,168.00
2018-04-01T12:47:16.525Z,172.00
2018-04-01T12:48:16.567Z,168.00
2018-04-01T12:49:16.623Z,152.00
2018-04-01T12:50:16.567Z,140.00
2018-04-01T12:51:16.584Z,136.00
2018-04-01T12:52:16.594Z,128.00
2018-04-01T12:53:16.608Z,132.00
2018-04-01T12:54:16.628Z,148.00
2018-04-01T12:55:16.649Z,200.00
2018-04-01T12:56:16.684Z,252.00
2018-04-01T12:57:16.666Z,244.00
2018-04-01T12:58:16.677Z,240.00
2018-04-01T12:59:16.691Z,236.00
2018-04-01T13:00:16.721Z,264.00
2018-04-01T13:01:16.717Z,268.00
2018-04-01T13:02:16.727Z,252.00
2018-04-01T13:03:16.761Z,244.00
2018-04-01T13:04:16.760Z,260.00
2018-04-01T13:05:16.790Z,264.00
2018-04-01T13:06:16.795Z,272.00
2018-04-01T13:07:16.831Z,272.00
2018-04-01T13:08:16.821Z,276.00
2018-04-01T13:09:16.940Z,260.00
2018-04-01T13:10:16.842Z,244.00
2018-04-01T13:11:16.860Z,244.00
2018-04-01T13:12:16.897Z,244.00
2018-04-01T13:13:16.885Z,244.00
2018-04-01T13:14:16.898Z,252.00
2018-04-01T13:15:17.003Z,248.00
2018-04-01T13:16:16.926Z,232.00
2018-04-01T13:17:16.960Z,200.00
2018-04-01T13:18:16.956Z,208.00
2018-04-01T13:19:17.021Z,220.00
2018-04-01T13:20:17.052Z,224.00
2018-04-01T13:21:17.057Z,228.00
2018-04-01T13:22:24.149Z,216.00
2018-04-01T13:23:17.072Z,208.00
2018-04-01T13:24:17.045Z,200.00
2018-04-01T13:25:17.059Z,192.00
2018-04-01T13:26:17.066Z,188.00
2018-04-01T13:27:17.082Z,176.00
2018-04-01T13:28:17.128Z,164.00
2018-04-01T13:29:17.108Z,172.00
2018-04-01T13:30:19.682Z,172.00
2018-04-01T13:31:17.580Z,176.00
2018-04-01T13:32:17.155Z,172.00
2018-04-01T13:33:17.185Z,172.00
2018-04-01T13:34:17.176Z,168.00
2018-04-01T13:35:17.201Z,156.00
2018-04-01T13:36:17.308Z,156.00
2018-04-01T13:37:17.592Z,160.00
2018-04-01T13:38:17.507Z,156.00
2018-04-01T13:39:17.496Z,148.00
2018-04-01T13:40:17.422Z,136.00
2018-04-01T13:41:17.561Z,144.00
2018-04-01T13:42:17.291Z,152.00
2018-04-01T13:43:17.426Z,176.00
2018-04-01T13:44:17.803Z,204.00
2018-04-01T13:45:17.529Z,204.00
2018-04-01T13:46:17.545Z,180.00
2018-04-01T13:47:17.538Z,172.00
2018-04-01T13:48:18.026Z,172.00
2018-04-01T13:49:17.584Z,168.00
2018-04-01T13:50:17.811Z,160.00
2018-04-01T13:51:17.517Z,156.00
2018-04-01T13:52:17.600Z,156.00
2018-04-01T13:53:17.625Z,156.00
2018-04-01T13:54:17.586Z,156.00
2018-04-01T13:55:17.530Z,148.00
2018-04-01T13:56:17.582Z,144.00
2018-04-01T13:57:17.500Z,144.00
2018-04-01T13:58:17.563Z,144.00
2018-04-01T13:59:17.527Z,140.00
2018-04-01T14:00:17.712Z,132.00
2018-04-01T14:01:17.565Z,136.00
2018-04-01T14:02:17.774Z,132.00
2018-04-01T14:03:17.726Z,124.00
2018-04-01T14:04:17.683Z,124.00
2018-04-01T14:05:17.655Z,120.00
2018-04-01T14:06:17.628Z,120.00
2018-04-01T14:07:17.638Z,124.00
2018-04-01T14:08:17.667Z,140.00
2018-04-01T14:09:17.668Z,148.00
2018-04-01T14:10:17.683Z,156.00
2018-04-01T14:11:17.730Z,172.00
2018-04-01T14:12:17.777Z,168.00
2018-04-01T14:13:17.716Z,156.00
2018-04-01T14:14:17.739Z,148.00
2018-04-01T14:15:17.750Z,144.00
2018-04-01T14:16:17.774Z,144.00
2018-04-01T14:17:17.778Z,156.00
2018-04-01T14:18:17.802Z,156.00
2018-04-01T14:19:18.013Z,124.00
2018-04-01T14:20:17.818Z,108.00
2018-04-01T14:21:17.831Z,108.00
2018-04-01T14:22:17.846Z,116.00
2018-04-01T14:23:18.435Z,116.00
2018-04-01T14:24:17.869Z,96.00
2018-04-01T14:25:17.905Z,84.00
2018-04-01T14:26:17.897Z,84.00
2018-04-01T14:27:17.911Z,84.00
2018-04-01T14:28:17.924Z,92.00
2018-04-01T14:29:17.942Z,92.00
2018-04-01T14:30:17.980Z,84.00
2018-04-01T14:31:17.979Z,76.00
2018-04-01T14:32:17.988Z,64.00
2018-04-01T14:33:17.992Z,52.00
2018-04-01T14:34:18.004Z,48.00
2018-04-01T14:35:18.017Z,48.00
2018-04-01T14:36:18.065Z,44.00
2018-04-01T14:37:18.045Z,48.00
2018-04-01T14:38:18.056Z,52.00
2018-04-01T14:39:18.072Z,60.00
2018-04-01T14:40:18.087Z,72.00
2018-04-01T14:41:18.144Z,92.00
2018-04-01T14:42:18.112Z,104.00
2018-04-01T14:43:18.141Z,120.00
2018-04-01T14:44:18.141Z,140.00
2018-04-01T14:45:18.152Z,140.00
2018-04-01T14:46:18.188Z,144.00
2018-04-01T14:47:18.182Z,136.00
2018-04-01T14:48:18.192Z,128.00
2018-04-01T14:49:18.205Z,120.00
2018-04-01T14:50:18.254Z,128.00
2018-04-01T14:51:18.353Z,136.00
2018-04-01T14:52:18.247Z,128.00
2018-04-01T14:53:18.291Z,116.00
2018-04-01T14:54:18.275Z,108.00
2018-04-01T14:55:18.294Z,108.00
2018-04-01T14:56:18.305Z,108.00
2018-04-01T14:57:18.312Z,104.00
2018-04-01T14:58:18.337Z,100.00
2018-04-01T14:59:18.359Z,100.00
2018-04-01T15:00:18.353Z,100.00
2018-04-01T15:01:18.402Z,96.00
2018-04-01T15:02:18.384Z,100.00
2018-04-01T15:03:18.414Z,108.00
2018-04-01T15:04:18.413Z,108.00
2018-04-01T15:05:18.463Z,108.00
2018-04-01T15:06:18.445Z,100.00
2018-04-01T15:07:18.581Z,100.00
2018-04-01T15:08:18.506Z,96.00
2018-04-01T15:09:18.479Z,88.00
2018-04-01T15:10:18.502Z,84.00
2018-04-01T15:11:18.544Z,84.00
2018-04-01T15:12:18.739Z,80.00
2018-04-01T15:13:18.551Z,76.00
2018-04-01T15:14:18.596Z,76.00
2018-04-01T15:15:18.561Z,72.00
2018-04-01T15:16:18.589Z,68.00
2018-04-01T15:17:18.589Z,60.00
2018-04-01T15:18:18.602Z,52.00
2018-04-01T15:19:18.612Z,48.00
2018-04-01T15:20:18.646Z,40.00
2018-04-01T15:21:18.644Z,32.00
2018-04-01T15:22:18.655Z,28.00
2018-04-01T15:23:18.733Z,24.00
2018-04-01T15:24:18.685Z,20.00